This is the latest recevied weather packets stored in our database for station/object 9A7DI-13. If no packets are shown the sender has not sent any weather packets the latest 10 day(s).
| Time | Temp. | Humidity | Pressure | Rain* | Wind** | Luminosity | Snow |
|---|---|---|---|---|---|---|---|
| 1777076247 | 7.22° C | 69% | 1024.1 hPa | - | - | - | - |
| 1777075647 | 7.78° C | 66% | 1024.2 hPa | - | - | - | - |
| 1777075047 | 7.22° C | 65% | 1024.3 hPa | - | - | - | - |
| 1777074447 | 8.33° C | 62% | 1024.2 hPa | - | - | - | - |
| 1777073847 | 8.33° C | 64% | 1024.2 hPa | - | - | - | - |
| 1777073247 | 8.33° C | 62% | 1024.2 hPa | - | - | - | - |
| 1777072647 | 8.33° C | 63% | 1024.3 hPa | - | - | - | - |
| 1777072047 | 8.33° C | 63% | 1024.3 hPa | - | - | - | - |
| 1777071447 | 8.89° C | 63% | 1024.3 hPa | - | - | - | - |
| 1777070847 | 8.89° C | 61% | 1024.4 hPa | - | - | - | - |
| 1777070247 | 9.44° C | 60% | 1024.4 hPa | - | - | - | - |
| 1777069647 | 8.89° C | 62% | 1024.5 hPa | - | - | - | - |
| 1777069047 | 9.44° C | 60% | 1024.5 hPa | - | - | - | - |
| 1777068447 | 10° C | 58% | 1024.5 hPa | - | - | - | - |
| 1777067847 | 10.56° C | 53% | 1024.4 hPa | - | - | - | - |
| 1777067247 | 10.56° C | 54% | 1024.3 hPa | - | - | - | - |
| 1777066647 | 10.56° C | 54% | 1024.3 hPa | - | - | - | - |
| 1777066047 | 11.11° C | 53% | 1024.2 hPa | - | - | - | - |
| 1777065447 | 11.11° C | 53% | 1024.3 hPa | - | - | - | - |
| 1777064847 | 11.11° C | 54% | 1024.2 hPa | - | - | - | - |
| 1777064247 | 11.11° C | 54% | 1024.2 hPa | - | - | - | - |
| 1777063647 | 11.11° C | 53% | 1024.2 hPa | - | - | - | - |
| 1777063047 | 11.11° C | 54% | 1024.3 hPa | - | - | - | - |
| 1777062447 | 11.67° C | 54% | 1024.3 hPa | - | - | - | - |
| 1777061847 | 11.67° C | 53% | 1024.2 hPa | - | - | - | - |
* Rain since midnight (hover to see other rain measurements)
** Current wind speed in m/s (hover to see current wind gust speed)